Time;durP1;ratioP1;P1;durP2;ratioP2;P2;SDS_P1;SDS_P2;PMS_P1;PMS_P2;Temp;Humidity;BMP_temperature;BMP_pressure;BME280_temperature;BME280_humidity;BME280_pressure;Samples;Min_cycle;Max_cycle;Signal;HPM_P1;HPM_P2
2020/12/01 00:01:27;;;;;;;34.83;18.85;;;;;;;-1.27;73.84;96839.94;5098884;28;20044;-76
2020/12/01 00:03:53;;;;;;;42.95;22.15;;;;;;;-1.25;73.89;96835.56;5098689;28;20051;-79
2020/12/01 00:06:20;;;;;;;37.78;22.90;;;;;;;-1.23;73.88;96830.31;5101272;28;20173;-77
2020/12/01 00:08:46;;;;;;;38.30;20.85;;;;;;;-1.20;73.93;96821.59;5103578;28;20044;-78
2020/12/01 00:11:14;;;;;;;39.80;21.55;;;;;;;-1.20;73.92;96821.59;5099294;28;20422;-78
2020/12/01 00:13:41;;;;;;;42.42;22.27;;;;;;;-1.18;73.76;96812.91;5099143;28;20051;-76
2020/12/01 00:16:11;;;;;;;41.97;22.17;;;;;;;-1.15;73.92;96811.88;5098373;28;20070;-76
2020/12/01 00:18:38;;;;;;;52.28;23.67;;;;;;;-1.14;73.84;96816.06;5099015;28;20063;-77
2020/12/01 00:21:04;;;;;;;44.65;22.60;;;;;;;-1.12;73.81;96804.78;5097753;28;20082;-76
2020/12/01 00:23:31;;;;;;;35.92;20.50;;;;;;;-1.11;73.66;96797.97;5097123;28;20055;-77
2020/12/01 00:25:57;;;;;;;36.58;20.40;;;;;;;-1.10;73.68;96802.94;5097257;28;20048;-77
2020/12/01 00:28:24;;;;;;;37.15;21.17;;;;;;;-1.09;73.53;96793.56;5096721;28;20525;-77
2020/12/01 00:30:51;;;;;;;40.05;21.60;;;;;;;-1.07;73.67;96791.72;5096719;28;20066;-76
2020/12/01 00:33:17;;;;;;;35.05;21.08;;;;;;;-1.07;73.57;96797.66;5097121;28;20048;-78
2020/12/01 00:35:44;;;;;;;36.90;21.15;;;;;;;-1.05;73.48;96794.97;5097028;28;20063;-77
2020/12/01 00:38:11;;;;;;;39.13;20.65;;;;;;;-1.05;73.66;96793.25;5097662;28;20059;-77
2020/12/01 00:40:38;;;;;;;41.15;23.13;;;;;;;-1.03;73.63;96788.00;5096582;28;20156;-78
2020/12/01 00:43:04;;;;;;;39.70;22.65;;;;;;;-1.00;73.65;96790.34;5096222;28;20055;-77
2020/12/01 00:45:31;;;;;;;35.42;20.48;;;;;;;-0.96;73.55;96793.50;5096465;28;20052;-76
2020/12/01 00:47:58;;;;;;;36.28;20.17;;;;;;;-0.96;73.33;96791.78;5096614;28;20048;-76
2020/12/01 00:50:25;;;;;;;32.90;19.00;;;;;;;-0.94;73.40;96791.66;5096159;28;20048;-76
2020/12/01 00:52:52;;;;;;;36.83;20.45;;;;;;;-0.92;73.45;96793.22;5095936;28;20048;-77
2020/12/01 00:55:19;;;;;;;39.38;21.25;;;;;;;-0.90;73.30;96790.53;5095998;28;20526;-77
2020/12/01 00:57:45;;;;;;;38.60;21.75;;;;;;;-0.86;73.34;96794.53;5095445;28;20425;-76
2020/12/01 01:00:16;;;;;;;33.78;19.75;;;;;;;-0.83;73.40;96794.31;5099741;28;20438;-76
2020/12/01 01:02:42;;;;;;;34.78;19.27;;;;;;;-0.77;73.37;96793.88;5099626;28;20051;-76
2020/12/01 01:05:10;;;;;;;36.47;20.83;;;;;;;-0.72;73.30;96791.00;5099565;28;20044;-76
2020/12/01 01:07:36;;;;;;;37.97;20.27;;;;;;;-0.69;73.42;96790.78;5099671;28;20071;-78
2020/12/01 01:10:03;;;;;;;38.55;20.77;;;;;;;-0.65;73.55;96792.22;5098886;28;20044;-76
2020/12/01 01:12:30;;;;;;;36.10;19.98;;;;;;;-0.60;73.30;96792.72;5099138;28;20044;-76
2020/12/01 01:14:57;;;;;;;38.05;21.10;;;;;;;-0.56;73.27;96786.44;5098760;28;20048;-77
2020/12/01 01:17:23;;;;;;;34.80;18.85;;;;;;;-0.53;73.61;96783.66;5099664;28;20052;-76
2020/12/01 01:19:50;;;;;;;32.78;19.58;;;;;;;-0.50;73.62;96775.78;5098849;28;20052;-77
2020/12/01 01:22:17;;;;;;;35.72;20.23;;;;;;;-0.47;73.80;96774.72;5099032;28;20055;-76
2020/12/01 01:24:43;;;;;;;34.13;19.50;;;;;;;-0.46;73.89;96766.94;5098279;28;20457;-76
2020/12/01 01:27:10;;;;;;;35.47;18.95;;;;;;;-0.44;74.07;96766.81;5099025;28;20060;-76
2020/12/01 01:29:36;;;;;;;33.00;19.58;;;;;;;-0.41;74.38;96756.34;5098640;28;20056;-78
2020/12/01 01:32:03;;;;;;;36.25;20.20;;;;;;;-0.39;74.40;96757.06;5099048;28;20052;-77
2020/12/01 01:34:30;;;;;;;34.65;20.27;;;;;;;-0.38;74.79;96745.06;5098509;28;20395;-77
2020/12/01 01:36:56;;;;;;;35.17;19.35;;;;;;;-0.37;74.77;96744.13;5097793;28;20391;-76
2020/12/01 01:39:23;;;;;;;36.55;19.83;;;;;;;-0.37;74.58;96739.00;5097554;28;20048;-76
2020/12/01 01:41:50;;;;;;;34.85;18.85;;;;;;;-0.38;74.95;96733.06;5098025;28;20047;-76
2020/12/01 01:44:23;;;;;;;32.08;19.10;;;;;;;-0.40;75.33;96726.41;5098232;28;20056;-76
2020/12/01 01:46:51;;;;;;;;;;;;;;;-0.38;75.29;96717.69;5098462;28;20056;-76
2020/12/01 01:49:22;;;;;;;30.73;18.88;;;;;;;-0.40;74.89;96713.59;5096857;28;20386;-76
2020/12/01 01:51:54;;;;;;;35.47;19.70;;;;;;;-0.42;75.07;96711.97;5097631;28;20071;-76
2020/12/01 01:54:22;;;;;;;32.45;19.33;;;;;;;-0.42;74.75;96701.72;5097169;28;20051;-77
2020/12/01 01:56:55;;;;;;;34.55;18.52;;;;;;;-0.40;75.19;96695.66;5097822;28;20056;-76
2020/12/01 01:59:22;;;;;;;34.75;18.35;;;;;;;-0.43;74.93;96689.03;5097787;28;20058;-77
2020/12/01 02:01:50;;;;;;;34.80;19.20;;;;;;;-0.47;75.12;96687.59;5097333;28;20056;-77
2020/12/01 02:04:17;;;;;;;34.00;17.75;;;;;;;-0.50;75.31;96678.41;5097425;28;20494;-76
2020/12/01 02:06:50;;;;;;;33.78;18.92;;;;;;;-0.51;75.69;96673.38;5096955;28;20059;-77
2020/12/01 02:09:23;;;;;;;34.50;19.50;;;;;;;-0.53;75.88;96660.66;5096194;28;20078;-76
2020/12/01 02:11:51;;;;;;;33.28;19.05;;;;;;;-0.54;76.09;96665.91;5097177;28;20056;-77
2020/12/01 02:14:22;;;;;;;33.72;20.02;;;;;;;-0.55;76.42;96654.84;5100449;22;20052;-74
2020/12/01 02:16:51;;;;;;;30.48;17.60;;;;;;;-0.56;76.81;96652.41;5075016;28;20059;-73
2020/12/01 02:19:22;;;;;;;31.52;16.88;;;;;;;-0.58;76.94;96642.25;5074603;28;20075;-75
2020/12/01 02:21:48;;;;;;;34.17;18.88;;;;;;;-0.59;77.17;96648.31;5075071;28;20055;-74
2020/12/01 02:24:18;;;;;;;35.60;19.23;;;;;;;-0.58;77.14;96637.13;5075440;28;20049;-74
2020/12/01 02:26:47;;;;;;;32.90;17.42;;;;;;;-0.57;77.51;96632.81;5074930;28;20041;-73
2020/12/01 02:29:21;;;;;;;35.42;18.63;;;;;;;-0.56;78.12;96627.59;5074057;28;20055;-74
2020/12/01 02:31:48;;;;;;;33.50;19.42;;;;;;;-0.56;77.69;96624.22;5074521;28;20136;-74
2020/12/01 02:34:20;;;;;;;37.75;17.35;;;;;;;-0.56;77.79;96617.34;5074034;28;20059;-73
2020/12/01 02:36:46;;;;;;;37.10;18.67;;;;;;;-0.56;77.96;96609.66;5074600;28;20048;-74
2020/12/01 02:39:18;;;;;;;32.42;17.13;;;;;;;-0.54;78.47;96600.13;5074115;28;20045;-73
2020/12/01 02:41:45;;;;;;;32.00;17.58;;;;;;;-0.52;78.41;96603.38;5072316;28;20052;-73
2020/12/01 02:44:12;;;;;;;31.58;18.10;;;;;;;-0.53;78.43;96601.72;5072958;28;20044;-73
2020/12/01 02:46:38;;;;;;;32.55;16.75;;;;;;;-0.52;78.84;96590.56;5073096;28;20522;-73
2020/12/01 02:49:06;;;;;;;35.60;18.85;;;;;;;-0.52;78.97;96588.00;5073005;28;20052;-73
2020/12/01 02:51:33;;;;;;;36.33;18.77;;;;;;;-0.50;78.94;96591.28;5073303;28;20048;-73
2020/12/01 02:54:00;;;;;;;33.25;18.38;;;;;;;-0.50;79.15;96581.03;5072456;28;20422;-73
2020/12/01 02:56:26;;;;;;;37.45;19.00;;;;;;;-0.48;78.95;96579.16;5073266;28;20430;-73
2020/12/01 02:58:54;;;;;;;34.75;18.88;;;;;;;-0.48;79.18;96571.47;5072790;28;20418;-72
2020/12/01 03:01:20;;;;;;;37.80;19.35;;;;;;;-0.46;79.20;96573.91;5072774;28;20041;-72
2020/12/01 03:03:47;;;;;;;38.67;19.25;;;;;;;-0.47;79.28;96555.16;5073016;28;20075;-73
2020/12/01 03:06:16;;;;;;;37.15;20.08;;;;;;;-0.46;79.85;96561.94;5073167;28;20052;-73
2020/12/01 03:08:43;;;;;;;45.40;22.02;;;;;;;-0.45;79.56;96558.44;5072931;28;20049;-74
2020/12/01 03:11:10;;;;;;;40.40;19.10;;;;;;;-0.44;79.62;96549.81;5072462;28;20131;-73
2020/12/01 03:13:36;;;;;;;38.13;20.52;;;;;;;-0.45;79.69;96545.63;5072326;28;20052;-73
2020/12/01 03:16:07;;;;;;;38.15;20.23;;;;;;;-0.44;79.81;96543.84;5072572;28;20048;-72
2020/12/01 03:18:34;;;;;;;36.88;19.20;;;;;;;-0.44;79.66;96538.72;5072714;28;20052;-73
2020/12/01 03:21:01;;;;;;;35.42;19.60;;;;;;;-0.44;79.82;96537.00;5071513;28;20059;-72
2020/12/01 03:23:27;;;;;;;35.22;18.50;;;;;;;-0.42;79.84;96542.84;5072513;28;20414;-72
2020/12/01 03:25:54;;;;;;;31.77;18.17;;;;;;;-0.40;80.01;96535.00;5072361;28;20057;-72
2020/12/01 03:28:20;;;;;;;35.20;19.30;;;;;;;-0.39;80.02;96530.69;5072261;28;20044;-73
2020/12/01 03:30:47;;;;;;;39.33;20.60;;;;;;;-0.40;79.81;96522.19;5071906;28;20055;-73
2020/12/01 03:33:14;;;;;;;38.90;19.48;;;;;;;-0.39;79.97;96516.16;5072334;28;20051;-72
2020/12/01 03:35:41;;;;;;;37.08;19.40;;;;;;;-0.37;80.10;96513.47;5072380;28;20045;-73
2020/12/01 03:38:07;;;;;;;35.50;18.52;;;;;;;-0.37;80.15;96505.78;5072344;28;20045;-73
2020/12/01 03:40:34;;;;;;;36.72;20.65;;;;;;;-0.35;80.10;96511.59;5071842;28;20056;-72
2020/12/01 03:43:00;;;;;;;35.22;20.73;;;;;;;-0.37;80.13;96498.91;5072129;28;20040;-72
2020/12/01 03:45:27;;;;;;;39.75;20.27;;;;;;;-0.37;80.11;96498.91;5072239;28;20395;-73
2020/12/01 03:47:55;;;;;;;37.35;18.70;;;;;;;-0.35;80.30;96501.34;5072394;28;20053;-73
2020/12/01 03:50:24;;;;;;;38.33;19.55;;;;;;;-0.33;80.53;96491.78;5087072;28;20056;-72
2020/12/01 03:52:51;;;;;;;36.78;20.45;;;;;;;-0.32;80.43;96491.69;5089984;28;20044;-73
2020/12/01 03:55:18;;;;;;;46.08;22.08;;;;;;;-0.30;80.48;96483.88;5088943;28;20494;-72
2020/12/01 03:57:45;;;;;;;36.30;19.30;;;;;;;-0.29;80.33;96482.94;5078612;28;20514;-73
2020/12/01 04:00:14;;;;;;;38.00;19.13;;;;;;;-0.30;80.56;96477.00;5072022;28;20045;-73
2020/12/01 04:02:40;;;;;;;39.45;21.20;;;;;;;-0.30;80.57;96477.00;5071894;28;20498;-72
2020/12/01 04:05:08;;;;;;;35.95;20.23;;;;;;;-0.31;80.44;96472.00;5072009;28;20075;-73
2020/12/01 04:07:35;;;;;;;36.50;20.63;;;;;;;-0.30;80.48;96473.63;5071947;28;20060;-72
2020/12/01 04:10:03;;;;;;;36.63;20.67;;;;;;;-0.29;80.50;96454.75;5071456;28;20052;-73
2020/12/01 04:12:29;;;;;;;37.35;18.95;;;;;;;-0.27;80.60;96458.00;5071627;28;20490;-73
2020/12/01 04:14:56;;;;;;;38.55;20.90;;;;;;;-0.27;80.76;96450.31;5071732;28;20048;-73
2020/12/01 04:17:23;;;;;;;42.63;22.02;;;;;;;-0.26;80.75;96450.22;5071781;28;20052;-72
2020/12/01 04:19:50;;;;;;;42.75;22.75;;;;;;;-0.25;80.71;96444.13;5071489;28;20048;-73
2020/12/01 04:22:17;;;;;;;36.85;20.02;;;;;;;-0.21;80.73;96447.28;5071876;28;20044;-72
2020/12/01 04:24:44;;;;;;;41.53;21.42;;;;;;;-0.22;80.86;96441.34;5072252;28;20052;-73
2020/12/01 04:27:12;;;;;;;38.13;21.35;;;;;;;-0.20;80.95;96446.34;5071677;28;20494;-72
2020/12/01 04:29:39;;;;;;;43.70;23.25;;;;;;;-0.20;81.01;96438.66;5071620;28;20052;-73
2020/12/01 04:32:06;;;;;;;37.60;20.90;;;;;;;-0.18;81.24;96436.78;5072454;28;20049;-73
2020/12/01 04:34:33;;;;;;;41.55;20.98;;;;;;;-0.16;81.09;96439.25;5075637;28;20045;-72
2020/12/01 04:37:00;;;;;;;40.03;22.83;;;;;;;-0.14;81.12;96434.81;5075684;28;20075;-74
2020/12/01 04:39:28;;;;;;;36.58;19.65;;;;;;;-0.12;81.22;96427.81;5075446;28;20059;-72
2020/12/01 04:41:55;;;;;;;37.97;21.85;;;;;;;-0.10;81.16;96426.75;5075701;28;20055;-73
2020/12/01 04:44:27;;;;;;;36.55;21.17;;;;;;;-0.09;81.50;96430.97;5075637;28;20400;-73
2020/12/01 04:46:55;;;;;;;37.67;20.25;;;;;;;-0.07;81.11;96433.38;5075773;28;20491;-72
2020/12/01 04:49:28;;;;;;;38.67;20.92;;;;;;;-0.08;81.29;96435.16;5075234;28;20059;-73
2020/12/01 04:52:28;;;;;;;38.15;21.05;;;;;;;-0.06;81.74;96429.91;5075704;28;20048;-73
2020/12/01 04:55:18;;;;;;;41.75;21.35;;;;;;;-0.05;81.95;96432.34;5074872;28;20048;-73
2020/12/01 04:58:15;;;;;;;39.40;20.25;;;;;;;-0.03;81.62;96425.34;5075469;28;20147;-73
2020/12/01 05:00:53;;;;;;;39.72;21.38;;;;;;;-0.01;81.40;96427.78;5075318;28;20053;-72
2020/12/01 05:03:30;;;;;;;38.83;20.20;;;;;;;-0.01;81.37;96418.34;5085312;28;20044;-72
2020/12/01 05:06:15;;;;;;;37.30;21.13;;;;;;;-0.01;81.57;96418.34;5095266;28;20052;-73
2020/12/01 05:08:49;;;;;;;40.30;19.20;;;;;;;0.01;81.38;96419.97;5095879;28;20112;-73
2020/12/01 05:11:37;;;;;;;36.63;20.65;;;;;;;0.01;82.15;96423.34;5090019;28;20055;-74
2020/12/01 05:14:14;;;;;;;36.50;19.73;;;;;;;0.03;81.94;96423.25;5075555;28;20041;-74
2020/12/01 05:16:59;;;;;;;36.17;19.10;;;;;;;0.06;82.17;96423.00;5075432;28;20052;-71
2020/12/01 05:19:47;;;;;;;38.53;19.33;;;;;;;0.11;82.37;96423.44;5076861;28;20028;-72
2020/12/01 05:22:16;;;;;;;36.42;19.88;;;;;;;0.16;81.85;96418.78;5067341;28;20044;-72
2020/12/01 05:24:45;;;;;;;38.00;20.67;;;;;;;0.20;82.21;96410.72;5074486;28;20418;-72
2020/12/01 05:27:28;;;;;;;35.75;20.30;;;;;;;0.25;82.58;96412.91;5074429;28;20051;-73
2020/12/01 05:30:00;;;;;;;38.10;22.00;;;;;;;0.30;82.05;96409.97;5074488;28;20079;-73
2020/12/01 05:32:30;;;;;;;40.08;21.30;;;;;;;0.31;82.01;96404.72;5074615;28;20052;-72
2020/12/01 05:35:19;;;;;;;38.35;19.23;;;;;;;0.33;82.79;96404.63;5072365;28;20044;-72
2020/12/01 05:37:54;;;;;;;37.15;19.13;;;;;;;0.34;82.25;96407.03;5065564;28;20052;-73
2020/12/01 05:40:21;;;;;;;37.75;21.30;;;;;;;0.36;81.89;96399.22;5073579;28;20088;-72
2020/12/01 05:42:48;;;;;;;31.30;18.52;;;;;;;0.37;81.93;96396.53;5074350;28;20048;-73
2020/12/01 05:45:28;;;;;;;34.45;19.25;;;;;;;0.39;82.21;96401.53;5073720;28;20055;-73
2020/12/01 05:48:02;;;;;;;29.80;18.08;;;;;;;0.39;82.29;96394.66;5074809;28;20048;-71
2020/12/01 05:50:31;;;;;;;32.45;19.33;;;;;;;0.41;82.03;96397.91;5079908;28;20136;-72
2020/12/01 05:53:05;;;;;;;33.25;18.75;;;;;;;0.45;82.75;96397.66;5077630;28;20048;-73
2020/12/01 05:55:32;;;;;;;33.08;18.23;;;;;;;0.46;82.25;96394.97;5076488;28;20067;-75
2020/12/01 05:58:03;;;;;;;36.75;21.20;;;;;;;0.51;82.39;96392.03;5074031;28;20048;-72
2020/12/01 06:00:33;;;;;;;31.95;17.98;;;;;;;0.56;82.30;96395.03;5073536;28;20052;-72
2020/12/01 06:03:17;;;;;;;33.13;19.42;;;;;;;0.60;82.66;96391.28;5074523;28;20059;-74
2020/12/01 06:05:47;;;;;;;31.85;17.83;;;;;;;0.64;82.36;96392.69;5078183;28;20044;-72
2020/12/01 06:08:25;;;;;;;35.10;18.27;;;;;;;0.68;82.25;96393.22;5077352;28;20060;-73
2020/12/01 06:10:58;;;;;;;31.50;18.73;;;;;;;0.70;82.28;96396.47;5074073;28;20049;-73
2020/12/01 06:13:30;;;;;;;;;;;;;;;0.75;82.38;96392.59;5074147;28;20045;-73
2020/12/01 06:16:16;;;;;;;30.17;16.85;;;;;;;0.75;82.26;96400.31;5073817;28;19920;-73
2020/12/01 06:18:50;;;;;;;29.52;16.00;;;;;;;0.76;82.08;96395.97;5073521;28;20048;-72
2020/12/01 06:21:38;;;;;;;29.38;16.73;;;;;;;0.77;82.49;96393.28;5075720;28;20064;-72
2020/12/01 06:24:46;;;;;;;30.48;16.67;;;;;;;0.81;82.15;96389.53;5073603;28;20052;-72
2020/12/01 06:27:57;;;;;;;29.98;17.20;;;;;;;0.85;82.02;96391.84;5074695;28;20048;-73
2020/12/01 06:30:54;;;;;;;28.50;17.25;;;;;;;0.88;81.91;96389.84;5073796;28;20135;-72
2020/12/01 06:34:06;;;;;;;29.10;17.17;;;;;;;0.89;82.08;96388.09;5075010;28;20048;-73
2020/12/01 06:37:04;;;;;;;33.08;19.13;;;;;;;0.90;82.05;96390.53;5071230;28;20052;-73
2020/12/01 06:39:44;;;;;;;31.35;17.88;;;;;;;0.91;81.64;96393.91;5073215;28;20048;-73
2020/12/01 06:42:15;;;;;;;28.13;17.23;;;;;;;0.93;81.64;96392.03;5073145;28;20079;-74
2020/12/01 06:44:45;;;;;;;29.52;16.85;;;;;;;0.96;81.81;96397.75;5073296;28;20495;-72
2020/12/01 06:47:11;;;;;;;32.05;17.67;;;;;;;0.97;81.48;96388.28;5073223;28;20049;-73
2020/12/01 06:49:39;;;;;;;28.92;17.65;;;;;;;0.99;81.76;96388.97;5072516;28;20060;-73
2020/12/01 06:52:14;;;;;;;27.20;15.38;;;;;;;1.01;81.92;96384.50;5072733;28;20499;-73
2020/12/01 06:54:49;;;;;;;28.63;16.55;;;;;;;1.00;81.78;96382.88;5074196;28;20045;-74
2020/12/01 06:57:25;;;;;;;28.15;15.93;;;;;;;1.02;81.92;96381.78;5074654;28;20062;-72
2020/12/01 06:59:52;;;;;;;27.90;15.45;;;;;;;1.03;81.47;96380.88;5072554;28;20048;-72
2020/12/01 07:02:25;;;;;;;28.90;16.55;;;;;;;1.05;81.86;96387.63;5073599;28;20048;-78
2020/12/01 07:05:03;;;;;;;32.08;15.85;;;;;;;1.06;82.02;96389.25;5075577;28;20319;-77
2020/12/01 07:07:33;;;;;;;32.25;18.02;;;;;;;1.07;81.97;96391.69;5073575;28;20636;-73
2020/12/01 07:10:12;;;;;;;28.27;16.48;;;;;;;1.10;81.90;96388.06;5072402;28;20049;-72
2020/12/01 07:12:47;;;;;;;33.05;17.42;;;;;;;1.12;81.65;96397.28;5072979;28;20053;-72
2020/12/01 07:15:25;;;;;;;31.17;16.75;;;;;;;1.15;81.38;96389.28;5072084;28;20052;-73
2020/12/01 07:18:03;;;;;;;29.83;17.33;;;;;;;1.18;81.68;96399.34;5072036;28;20045;-72
2020/12/01 07:20:35;;;;;;;80.38;21.98;;;;;;;1.20;81.77;96400.03;5072138;28;20049;-73
2020/12/01 07:23:13;;;;;;;37.22;17.98;;;;;;;1.21;81.54;96401.63;5071917;28;20056;-71
2020/12/01 07:25:44;;;;;;;42.25;18.85;;;;;;;1.22;81.15;96397.31;5071839;28;20510;-72
2020/12/01 07:28:19;;;;;;;40.53;17.90;;;;;;;1.20;81.34;96400.03;5071960;28;20053;-72
2020/12/01 07:30:55;;;;;;;59.03;20.42;;;;;;;1.21;81.41;96401.63;5071973;28;20044;-73
2020/12/01 07:33:26;;;;;;;46.17;19.98;;;;;;;1.21;81.49;96396.50;5072143;28;20048;-72
2020/12/01 07:35:57;;;;;;;34.53;17.70;;;;;;;1.20;81.39;96399.19;5072106;28;20499;-72
2020/12/01 07:38:35;;;;;;;35.65;18.75;;;;;;;1.17;81.38;96400.25;5071434;28;20052;-73
2020/12/01 07:41:20;;;;;;;35.28;17.75;;;;;;;1.17;81.46;96396.88;5071856;28;20083;-72
2020/12/01 07:43:57;;;;;;;38.90;19.23;;;;;;;1.16;81.71;96392.66;5072090;28;20203;-71
2020/12/01 07:46:23;;;;;;;39.47;20.05;;;;;;;1.15;81.34;96398.75;5072272;28;20056;-72
2020/12/01 07:48:57;;;;;;;42.35;21.83;;;;;;;1.15;81.58;96396.19;5071894;28;20049;-72
2020/12/01 07:51:25;;;;;;;36.05;19.67;;;;;;;1.15;81.48;96391.06;5071978;28;20078;-72
2020/12/01 07:53:53;;;;;;;34.58;18.63;;;;;;;1.15;81.45;96397.00;5071933;28;20048;-72
2020/12/01 07:56:22;;;;;;;31.45;18.50;;;;;;;1.15;81.62;96401.34;5071935;28;20075;-71
2020/12/01 07:59:11;;;;;;;36.17;19.33;;;;;;;1.14;81.90;96408.25;5071721;28;20044;-72
2020/12/01 08:01:37;;;;;;;33.10;18.00;;;;;;;1.14;81.41;96410.81;5072453;28;20520;-72
2020/12/01 08:04:06;;;;;;;26.33;16.50;;;;;;;1.16;81.49;96408.09;5071757;28;20048;-72
2020/12/01 08:06:33;;;;;;;30.00;17.55;;;;;;;1.17;81.50;96407.16;5072209;28;20045;-73
2020/12/01 08:09:01;;;;;;;29.60;16.90;;;;;;;1.17;81.41;96405.41;5071378;28;20422;-72
2020/12/01 08:11:31;;;;;;;30.10;17.83;;;;;;;1.17;81.34;96410.53;5071927;28;20067;-72
2020/12/01 08:16:29;;;;;;;31.50;17.45;;;;;;;1.15;81.60;96415.00;5031346;28;20050;-75
2020/12/01 08:18:56;;;;;;;29.20;16.73;;;;;;;1.17;81.67;96410.53;5032329;28;20060;-74
2020/12/01 08:21:25;;;;;;;31.13;17.63;;;;;;;1.18;81.64;96408.78;5032075;28;20053;-75
2020/12/01 08:23:54;;;;;;;32.55;17.02;;;;;;;1.21;81.41;96417.06;5032024;28;20045;-74
2020/12/01 08:26:25;;;;;;;35.88;18.63;;;;;;;1.21;81.33;96411.91;5052067;28;20060;-75
2020/12/01 08:28:58;;;;;;;34.03;17.92;;;;;;;1.23;81.34;96404.09;5051492;28;20057;-75
2020/12/01 08:31:42;;;;;;;32.78;18.42;;;;;;;1.24;81.39;96406.50;5050879;28;20076;-75
2020/12/01 08:34:30;;;;;;;49.45;21.23;;;;;;;1.24;81.31;96409.06;5051864;28;20045;-78
2020/12/01 08:37:05;;;;;;;44.72;20.77;;;;;;;1.27;81.32;96407.19;5053652;28;20071;-77
2020/12/01 08:39:52;;;;;;;38.83;19.25;;;;;;;1.29;81.38;96413.03;5052288;28;20072;-76
2020/12/01 08:42:38;;;;;;;41.35;20.58;;;;;;;1.30;81.60;96418.03;5052049;28;20055;-76
2020/12/01 08:45:29;;;;;;;86.70;25.08;;;;;;;1.31;81.61;96418.84;5051832;28;20041;-77
2020/12/01 08:48:02;;;;;;;62.00;24.63;;;;;;;1.33;81.26;96419.53;5052565;28;20453;-76
2020/12/01 08:50:32;;;;;;;53.13;21.33;;;;;;;1.34;81.11;96421.19;5052835;28;20079;-76
2020/12/01 08:53:07;;;;;;;38.72;19.52;;;;;;;1.37;81.33;96415.78;5052271;28;20048;-76
2020/12/01 08:55:38;;;;;;;39.75;21.15;;;;;;;1.38;81.24;96415.66;5052446;28;20045;-76
2020/12/01 08:58:14;;;;;;;37.45;20.63;;;;;;;1.39;81.41;96424.97;5052613;28;20057;-76
2020/12/01 09:00:58;;;;;;;30.15;17.95;;;;;;;1.41;81.14;96414.56;5052495;28;20492;-76
2020/12/01 09:03:27;;;;;;;33.72;18.80;;;;;;;1.42;81.23;96409.31;5032375;28;20554;-76
2020/12/01 09:05:53;;;;;;;31.33;16.08;;;;;;;1.45;81.00;96410.81;5032137;28;20045;-78
2020/12/01 09:11:16;;;;;;;90.28;25.25;;;;;;;1.50;81.08;96415.56;5036239;28;20050;-77
2020/12/01 09:13:51;;;;;;;70.18;20.38;;;;;;;1.49;81.10;96414.75;5038019;28;20128;-76
2020/12/01 09:16:24;;;;;;;49.05;16.13;;;;;;;1.51;81.32;96423.16;5042052;28;20049;-77
2020/12/01 09:19:15;;;;;;;24.77;14.75;;;;;;;1.51;81.14;96415.44;5046455;28;20108;-76
2020/12/01 09:21:52;;;;;;;22.13;13.13;;;;;;;1.54;80.63;96422.88;5040827;28;20051;-76
2020/12/01 09:24:23;;;;;;;22.13;12.02;;;;;;;1.54;80.89;96414.34;5036836;28;20447;-77
2020/12/01 09:27:01;;;;;;;24.35;12.57;;;;;;;1.53;81.47;96410.97;5037542;28;20053;-76
2020/12/01 09:29:28;;;;;;;20.23;11.65;;;;;;;1.55;81.29;96419.38;5043105;28;20072;-77
2020/12/01 09:31:55;;;;;;;19.42;11.07;;;;;;;1.56;81.07;96423.56;5054718;28;20092;-78
2020/12/01 09:34:22;;;;;;;18.38;10.45;;;;;;;1.57;80.96;96425.16;5053106;28;20053;-76
2020/12/01 09:36:48;;;;;;;17.60;10.63;;;;;;;1.57;81.32;96429.50;5052273;28;20041;-76
2020/12/01 09:39:15;;;;;;;17.58;10.57;;;;;;;1.56;81.42;96433.84;5041162;28;20061;-76
2020/12/01 09:41:52;;;;;;;15.23;9.68;;;;;;;1.56;81.08;96431.28;5043703;28;20057;-76
2020/12/01 09:44:39;;;;;;;16.40;10.00;;;;;;;1.61;81.35;96431.69;5043269;28;20049;-76
2020/12/01 09:47:08;;;;;;;16.27;10.43;;;;;;;1.64;81.40;96422.91;5038873;28;20050;-76
2020/12/01 09:49:35;;;;;;;15.43;10.50;;;;;;;1.65;81.08;96425.34;5035561;28;20053;-76
2020/12/01 09:52:08;;;;;;;15.70;9.80;;;;;;;1.69;80.85;96425.09;5035456;28;20056;-76
2020/12/01 09:54:38;;;;;;;14.73;10.00;;;;;;;1.68;81.03;96426.03;5035237;28;20045;-76
2020/12/01 09:57:07;;;;;;;13.93;9.30;;;;;;;1.69;80.91;96425.09;5035743;28;20059;-76
2020/12/01 09:59:42;;;;;;;15.38;9.80;;;;;;;1.72;80.90;96429.97;5035380;28;20057;-76
2020/12/01 10:05:08;;;;;;;13.70;9.65;;;;;;;1.74;81.01;96433.22;5035064;28;20045;-79
2020/12/01 10:10:48;;;;;;;14.07;9.70;;;;;;;1.70;80.79;96431.84;5045827;28;20045;-76
2020/12/01 10:13:32;;;;;;;16.05;9.73;;;;;;;1.68;80.87;96437.13;5056248;28;20049;-76
2020/12/01 10:19:09;;;;;;;19.15;9.95;;;;;;;1.67;80.85;96429.56;5035443;28;20046;-79
2020/12/01 10:22:34;;;;;;;15.57;10.25;;;;;;;1.65;80.93;96433.06;5035781;28;20042;-76
2020/12/01 10:35:46;;;;;;;16.05;9.57;;;;;;;1.67;80.96;96426.97;5034872;28;20046;-77
2020/12/01 10:38:13;;;;;;;16.48;10.45;;;;;;;1.67;81.22;96424.41;5035273;28;20063;-77
2020/12/01 10:40:40;;;;;;;16.20;10.18;;;;;;;1.70;81.08;96427.50;5034774;28;20508;-77
2020/12/01 10:43:07;;;;;;;16.67;10.10;;;;;;;1.73;81.36;96434.16;5035233;28;20064;-77
2020/12/01 10:45:34;;;;;;;15.23;10.00;;;;;;;1.76;81.03;96428.75;5035410;28;20436;-77
2020/12/01 10:48:16;;;;;;;15.05;10.13;;;;;;;1.78;80.98;96429.44;5034683;28;20087;-77
2020/12/01 10:50:43;;;;;;;14.95;8.88;;;;;;;1.76;81.12;96427.00;5054190;28;20049;-76
2020/12/01 10:53:09;;;;;;;14.88;9.80;;;;;;;1.78;80.96;96434.59;5054908;28;20087;-77
2020/12/01 10:55:37;;;;;;;14.98;9.00;;;;;;;1.80;80.96;96432.72;5053721;28;20052;-76
2020/12/01 10:58:03;;;;;;;13.80;8.65;;;;;;;1.80;81.24;96422.41;5054658;28;20048;-76
2020/12/01 11:00:30;;;;;;;16.35;10.10;;;;;;;1.81;81.00;96424.03;5054200;28;20060;-76
2020/12/01 11:02:56;;;;;;;14.57;9.65;;;;;;;1.81;80.83;96424.03;5057603;28;20772;-76
2020/12/01 11:05:27;;;;;;;14.70;8.65;;;;;;;1.81;81.08;96424.03;5058004;28;20135;-76
2020/12/01 11:07:54;;;;;;;15.52;9.02;;;;;;;1.82;80.96;96420.53;5056691;28;20045;-77
2020/12/01 11:10:21;;;;;;;18.70;10.85;;;;;;;1.83;81.08;96419.56;5055315;28;20051;-77
2020/12/01 11:12:48;;;;;;;15.27;10.18;;;;;;;1.84;80.85;96421.22;5075312;28;20104;-77
2020/12/01 11:15:15;;;;;;;14.13;8.15;;;;;;;1.85;80.87;96425.41;5073800;28;20041;-75
2020/12/01 11:17:42;;;;;;;13.73;8.75;;;;;;;1.87;80.89;96428.66;5067632;28;20422;-77
2020/12/01 11:20:10;;;;;;;16.90;9.57;;;;;;;1.86;80.99;96432.19;5055031;28;20049;-76
2020/12/01 11:22:37;;;;;;;15.38;9.35;;;;;;;1.87;80.74;96423.50;5055586;28;20049;-76
2020/12/01 11:25:03;;;;;;;13.30;8.77;;;;;;;1.88;80.91;96425.16;5042347;28;20594;-76
2020/12/01 11:27:30;;;;;;;13.85;9.32;;;;;;;1.90;80.83;96423.22;5053640;28;20060;-79
2020/12/01 11:29:57;;;;;;;14.70;9.55;;;;;;;1.91;80.88;96429.22;5051824;28;20518;-78
2020/12/01 11:32:24;;;;;;;14.85;9.88;;;;;;;1.93;81.03;96433.28;5046050;28;20046;-76
2020/12/01 11:34:50;;;;;;;13.73;8.75;;;;;;;1.93;80.56;96435.84;5046253;28;20049;-76
2020/12/01 11:37:17;;;;;;;15.80;9.55;;;;;;;1.93;80.56;96438.41;5044446;28;20046;-76
2020/12/01 11:39:43;;;;;;;15.20;8.77;;;;;;;1.93;80.73;96442.75;5045730;28;20056;-76
2020/12/01 11:42:10;;;;;;;12.90;9.25;;;;;;;1.92;80.78;96441.13;5045902;28;20055;-76
2020/12/01 11:44:37;;;;;;;15.35;8.93;;;;;;;1.93;80.58;96446.13;5041418;28;20055;-76
2020/12/01 11:47:04;;;;;;;16.38;9.10;;;;;;;1.93;80.91;96441.00;5040796;28;20053;-76
2020/12/01 11:49:31;;;;;;;14.13;9.43;;;;;;;1.94;81.03;96442.59;5037296;28;20496;-76
2020/12/01 11:51:58;;;;;;;14.63;9.43;;;;;;;1.96;80.57;96447.63;5035799;28;20064;-76
2020/12/01 11:54:25;;;;;;;14.98;9.27;;;;;;;1.98;80.57;96440.59;5035150;28;20045;-77
2020/12/01 11:56:52;;;;;;;13.95;10.13;;;;;;;2.00;80.72;96439.50;5037252;28;20059;-76
2020/12/01 11:59:18;;;;;;;14.23;9.55;;;;;;;2.02;80.65;96442.78;5053869;28;20079;-76
2020/12/01 12:01:46;;;;;;;12.50;8.63;;;;;;;2.02;80.63;96455.63;5054040;28;20057;-77
2020/12/01 12:04:13;;;;;;;12.98;7.60;;;;;;;2.01;80.34;96451.44;5053452;28;20052;-76
2020/12/01 12:06:40;;;;;;;12.15;8.05;;;;;;;2.00;80.38;96457.53;5053331;28;20063;-76
2020/12/01 12:09:08;;;;;;;10.32;7.13;;;;;;;1.99;80.71;96458.47;5052892;28;20053;-75